Decoded Metar for ULMM (MURMANSK in RUSSIA) (IATA:MMK) | Meteo·Mobile Aviation Weather
aviador You're here:

ULMM Decoded Metar

MURMANSK in RUSSIA
Report Time2018-12-16 11:00:00
UTC Time2018-12-16 11:36:56
Flight Rules vfr VFR
Wind210° at 4 kt
W.Decomp.*RWY 13: 1.7 kt HW 3.6 kt RCW
W.Rank210° ranks 19
Current wind is below 210° avg. (5.8)
Visibility9999 m
Phenomena:N/A
Clouds:N/A
Expected CloudBase > 1,200 ft AGL from Temp-Dew spread
CeilingNone
Temp-6°C (ISA -21)
Dew Point-9°C (80% RH)
AAT-10.4°C
QNH1027 hPa
Density Alt-2,828 ft
Elevation167 ft
Report Wrong Elevation
Raw Report
ULMM 161100Z 21002MPS 170V240 CAVOK M06/M09 Q1027 R31/350045 NOSIG
RMK QFE762=

Extra information for ULMM:More info

Metar Taf Metar & Taf Last 4 Metars F.Rules Stats Wind Profile Meteogram Temp Stats Airport Information Weather charts Add Link Nearby VenuesMetar ALERT Operation Metar Decoded Social comments